Accueil
METAR-TAF:

METAR-TAF

Aéroports :

Uden, Pays-Bas

Base aérienne Volkel-Uden

latitude: 51-39N, longitude: 005-42E, altitude: 22 m

Observation

Le bulletin a été fait il y a 12 minutes, à 03:18 UTC
Vent 1 kt de direction variable
Température 9°C
Humidité 100%
Pression 1011 hPa
Visibilité: 0350 m
Quelques nuages à une hauteur inférieure à 100 ft
brouillard

METAR: EHVK 190318Z AUTO VRB01KT 0350 FG FEW000 09/09 Q1011 RED

Heure: 05:30 (03:30 UTC)

Prévision

Le bulletin a été fait il y a 18 heures et 58 minutes, à 08:32 UTC
Prévision valable du 18 à 09 UTC au 18 à 21 UTC
Vent 6 kt de sud/sud-est
Visibilité: 0300 m
Nuages fragmentés à une hauteur de 100 ft
brouillard
Evoluant progressivement
du 08 à 09 UTC au 08 à 11 UTC
Vent 4 kt de sud
Visibilité 10 km ou plus
pas de nuages en-dessous de 1500 mètres et pas de cumulonimbus.

TAF: EHVK 180832Z 1809/1821 16006KT 0300 FG BKN001 BECMG 0809/0811 18004KT CAVOK

Observations et prévisions météorologiques de plus de 4000 aéroports (messages METAR et TAF).

Les stations disponibles sont représentées par des disques jaunes et rouges sur la carte.

Passer la souris dessus pour voir le nom de la station.

Cliquer dessus pour voir les observations et prévisions météorologiques.

Pour changer de carte: cliquez sur les boutons verts avec une croix noire pour zoomer, sur le bouton vert avec un tiret pour effectuer un zoom arrière, ou sur les flèches vertes pour les cartes adjacentes.


METAR-TAF: